sensor_id;sensor_type;location;lat;lon;timestamp;P1;durP1;ratioP1;P2;durP2;ratioP2
23187;SDS011;11762;59.878;17.686;2024-01-06T00:02:10;4.53;;;2.20;;
23187;SDS011;11762;59.878;17.686;2024-01-06T00:04:37;3.60;;;1.90;;
23187;SDS011;11762;59.878;17.686;2024-01-06T00:07:04;3.20;;;1.70;;
23187;SDS011;11762;59.878;17.686;2024-01-06T00:09:32;5.50;;;2.10;;
23187;SDS011;11762;59.878;17.686;2024-01-06T00:12:00;8.43;;;2.50;;
23187;SDS011;11762;59.878;17.686;2024-01-06T00:14:27;5.30;;;2.37;;
23187;SDS011;11762;59.878;17.686;2024-01-06T00:16:55;3.57;;;2.27;;
23187;SDS011;11762;59.878;17.686;2024-01-06T00:19:22;5.00;;;1.70;;
23187;SDS011;11762;59.878;17.686;2024-01-06T00:21:49;4.23;;;2.03;;
23187;SDS011;11762;59.878;17.686;2024-01-06T00:24:17;3.53;;;1.70;;
23187;SDS011;11762;59.878;17.686;2024-01-06T00:26:45;4.93;;;2.10;;
23187;SDS011;11762;59.878;17.686;2024-01-06T00:29:12;3.27;;;1.70;;
23187;SDS011;11762;59.878;17.686;2024-01-06T00:31:40;4.07;;;1.93;;
23187;SDS011;11762;59.878;17.686;2024-01-06T00:34:07;3.20;;;1.57;;
23187;SDS011;11762;59.878;17.686;2024-01-06T00:36:34;3.13;;;1.83;;
23187;SDS011;11762;59.878;17.686;2024-01-06T00:39:01;3.27;;;1.63;;
23187;SDS011;11762;59.878;17.686;2024-01-06T00:41:29;4.00;;;1.67;;
23187;SDS011;11762;59.878;17.686;2024-01-06T00:43:58;3.67;;;1.80;;
23187;SDS011;11762;59.878;17.686;2024-01-06T00:46:25;4.23;;;2.13;;
23187;SDS011;11762;59.878;17.686;2024-01-06T00:48:52;2.43;;;1.43;;
23187;SDS011;11762;59.878;17.686;2024-01-06T00:51:20;3.57;;;1.50;;
23187;SDS011;11762;59.878;17.686;2024-01-06T00:53:47;4.00;;;1.70;;
23187;SDS011;11762;59.878;17.686;2024-01-06T00:56:14;2.80;;;1.50;;
23187;SDS011;11762;59.878;17.686;2024-01-06T00:58:41;3.57;;;2.00;;
23187;SDS011;11762;59.878;17.686;2024-01-06T01:01:10;6.07;;;1.77;;
23187;SDS011;11762;59.878;17.686;2024-01-06T01:03:37;2.60;;;1.53;;
23187;SDS011;11762;59.878;17.686;2024-01-06T01:06:05;3.53;;;1.70;;
23187;SDS011;11762;59.878;17.686;2024-01-06T01:08:32;3.37;;;1.57;;
23187;SDS011;11762;59.878;17.686;2024-01-06T01:10:59;3.83;;;1.60;;
23187;SDS011;11762;59.878;17.686;2024-01-06T01:13:26;2.67;;;1.67;;
23187;SDS011;11762;59.878;17.686;2024-01-06T01:15:53;4.47;;;1.73;;
23187;SDS011;11762;59.878;17.686;2024-01-06T01:18:22;3.97;;;1.77;;
23187;SDS011;11762;59.878;17.686;2024-01-06T01:20:49;3.13;;;1.70;;
23187;SDS011;11762;59.878;17.686;2024-01-06T01:23:17;6.73;;;1.80;;
23187;SDS011;11762;59.878;17.686;2024-01-06T01:25:44;3.23;;;1.40;;
23187;SDS011;11762;59.878;17.686;2024-01-06T01:28:12;5.70;;;1.50;;
23187;SDS011;11762;59.878;17.686;2024-01-06T01:30:39;2.97;;;1.47;;
23187;SDS011;11762;59.878;17.686;2024-01-06T01:33:07;4.03;;;1.80;;
23187;SDS011;11762;59.878;17.686;2024-01-06T01:35:35;3.33;;;1.60;;
23187;SDS011;11762;59.878;17.686;2024-01-06T01:38:03;4.33;;;1.90;;
23187;SDS011;11762;59.878;17.686;2024-01-06T01:40:30;3.93;;;1.97;;
23187;SDS011;11762;59.878;17.686;2024-01-06T01:42:57;3.07;;;1.50;;
23187;SDS011;11762;59.878;17.686;2024-01-06T01:45:24;3.40;;;1.67;;
23187;SDS011;11762;59.878;17.686;2024-01-06T01:47:52;3.23;;;1.53;;
23187;SDS011;11762;59.878;17.686;2024-01-06T01:50:19;2.77;;;1.30;;
23187;SDS011;11762;59.878;17.686;2024-01-06T01:52:48;4.60;;;1.60;;
23187;SDS011;11762;59.878;17.686;2024-01-06T01:55:16;2.93;;;1.47;;
23187;SDS011;11762;59.878;17.686;2024-01-06T01:57:43;3.43;;;1.57;;
23187;SDS011;11762;59.878;17.686;2024-01-06T02:00:11;4.37;;;1.50;;
23187;SDS011;11762;59.878;17.686;2024-01-06T02:02:39;3.80;;;1.73;;
23187;SDS011;11762;59.878;17.686;2024-01-06T02:05:06;5.27;;;1.67;;
23187;SDS011;11762;59.878;17.686;2024-01-06T02:07:33;4.20;;;1.50;;
23187;SDS011;11762;59.878;17.686;2024-01-06T02:10:02;3.70;;;1.60;;
23187;SDS011;11762;59.878;17.686;2024-01-06T02:12:30;3.37;;;1.50;;
23187;SDS011;11762;59.878;17.686;2024-01-06T02:14:57;3.10;;;1.43;;
23187;SDS011;11762;59.878;17.686;2024-01-06T02:17:24;3.67;;;1.43;;
23187;SDS011;11762;59.878;17.686;2024-01-06T02:19:51;4.77;;;1.93;;
23187;SDS011;11762;59.878;17.686;2024-01-06T02:22:20;4.50;;;1.93;;
23187;SDS011;11762;59.878;17.686;2024-01-06T02:24:48;3.23;;;1.77;;
23187;SDS011;11762;59.878;17.686;2024-01-06T02:27:15;2.27;;;1.20;;
23187;SDS011;11762;59.878;17.686;2024-01-06T02:29:42;2.70;;;1.43;;
23187;SDS011;11762;59.878;17.686;2024-01-06T02:32:09;4.67;;;1.70;;
23187;SDS011;11762;59.878;17.686;2024-01-06T02:34:36;3.03;;;1.47;;
23187;SDS011;11762;59.878;17.686;2024-01-06T02:37:04;3.30;;;1.53;;
23187;SDS011;11762;59.878;17.686;2024-01-06T02:39:33;2.90;;;1.60;;
23187;SDS011;11762;59.878;17.686;2024-01-06T02:42:00;3.77;;;1.63;;
23187;SDS011;11762;59.878;17.686;2024-01-06T02:44:27;4.17;;;1.60;;
23187;SDS011;11762;59.878;17.686;2024-01-06T02:46:54;2.37;;;1.30;;
23187;SDS011;11762;59.878;17.686;2024-01-06T02:49:22;3.60;;;1.43;;
23187;SDS011;11762;59.878;17.686;2024-01-06T02:51:49;2.93;;;1.60;;
23187;SDS011;11762;59.878;17.686;2024-01-06T02:54:16;3.70;;;1.77;;
23187;SDS011;11762;59.878;17.686;2024-01-06T02:56:45;2.93;;;1.40;;
23187;SDS011;11762;59.878;17.686;2024-01-06T02:59:12;3.03;;;1.60;;
23187;SDS011;11762;59.878;17.686;2024-01-06T03:01:39;5.87;;;2.07;;
23187;SDS011;11762;59.878;17.686;2024-01-06T03:04:06;3.23;;;1.50;;
23187;SDS011;11762;59.878;17.686;2024-01-06T03:06:34;3.03;;;1.40;;
23187;SDS011;11762;59.878;17.686;2024-01-06T03:09:01;5.27;;;2.00;;
23187;SDS011;11762;59.878;17.686;2024-01-06T03:11:29;2.57;;;1.40;;
23187;SDS011;11762;59.878;17.686;2024-01-06T03:13:57;3.07;;;1.60;;
23187;SDS011;11762;59.878;17.686;2024-01-06T03:16:25;4.47;;;1.83;;
23187;SDS011;11762;59.878;17.686;2024-01-06T03:18:52;2.57;;;1.50;;
23187;SDS011;11762;59.878;17.686;2024-01-06T03:21:19;3.33;;;1.50;;
23187;SDS011;11762;59.878;17.686;2024-01-06T03:23:47;3.13;;;1.83;;
23187;SDS011;11762;59.878;17.686;2024-01-06T03:26:14;4.00;;;2.30;;
23187;SDS011;11762;59.878;17.686;2024-01-06T03:28:42;3.77;;;1.73;;
23187;SDS011;11762;59.878;17.686;2024-01-06T03:31:10;4.13;;;1.80;;
23187;SDS011;11762;59.878;17.686;2024-01-06T03:33:38;3.20;;;1.60;;
23187;SDS011;11762;59.878;17.686;2024-01-06T03:36:05;3.47;;;1.77;;
23187;SDS011;11762;59.878;17.686;2024-01-06T03:38:32;4.07;;;2.17;;
23187;SDS011;11762;59.878;17.686;2024-01-06T03:41:00;3.03;;;1.70;;
23187;SDS011;11762;59.878;17.686;2024-01-06T03:43:27;3.20;;;1.77;;
23187;SDS011;11762;59.878;17.686;2024-01-06T03:45:54;2.93;;;1.50;;
23187;SDS011;11762;59.878;17.686;2024-01-06T03:48:24;4.63;;;1.97;;
23187;SDS011;11762;59.878;17.686;2024-01-06T03:50:51;7.50;;;2.33;;
23187;SDS011;11762;59.878;17.686;2024-01-06T03:53:18;4.97;;;1.90;;
23187;SDS011;11762;59.878;17.686;2024-01-06T03:55:46;3.03;;;1.40;;
23187;SDS011;11762;59.878;17.686;2024-01-06T03:58:13;2.97;;;1.60;;
23187;SDS011;11762;59.878;17.686;2024-01-06T04:00:40;3.90;;;1.60;;
23187;SDS011;11762;59.878;17.686;2024-01-06T04:03:07;4.80;;;1.90;;
23187;SDS011;11762;59.878;17.686;2024-01-06T04:05:36;4.27;;;1.50;;
23187;SDS011;11762;59.878;17.686;2024-01-06T04:08:03;2.73;;;1.50;;
23187;SDS011;11762;59.878;17.686;2024-01-06T04:10:31;4.00;;;1.80;;
23187;SDS011;11762;59.878;17.686;2024-01-06T04:12:58;2.67;;;1.43;;
23187;SDS011;11762;59.878;17.686;2024-01-06T04:15:25;4.23;;;1.43;;
23187;SDS011;11762;59.878;17.686;2024-01-06T04:17:53;3.53;;;1.67;;
23187;SDS011;11762;59.878;17.686;2024-01-06T04:20:21;3.27;;;1.63;;
23187;SDS011;11762;59.878;17.686;2024-01-06T04:22:49;3.57;;;1.50;;
23187;SDS011;11762;59.878;17.686;2024-01-06T04:25:17;5.00;;;1.70;;
23187;SDS011;11762;59.878;17.686;2024-01-06T04:27:44;2.90;;;1.60;;
23187;SDS011;11762;59.878;17.686;2024-01-06T04:30:12;2.80;;;1.40;;
23187;SDS011;11762;59.878;17.686;2024-01-06T04:32:39;3.63;;;1.53;;
23187;SDS011;11762;59.878;17.686;2024-01-06T04:35:07;2.80;;;1.47;;
23187;SDS011;11762;59.878;17.686;2024-01-06T04:37:34;4.60;;;1.80;;
23187;SDS011;11762;59.878;17.686;2024-01-06T04:40:03;4.13;;;1.70;;
23187;SDS011;11762;59.878;17.686;2024-01-06T04:42:31;3.17;;;1.43;;
23187;SDS011;11762;59.878;17.686;2024-01-06T04:44:58;2.77;;;1.50;;
23187;SDS011;11762;59.878;17.686;2024-01-06T04:47:25;2.57;;;1.00;;
23187;SDS011;11762;59.878;17.686;2024-01-06T04:49:53;3.10;;;1.60;;
23187;SDS011;11762;59.878;17.686;2024-01-06T04:52:20;4.73;;;1.60;;
23187;SDS011;11762;59.878;17.686;2024-01-06T04:54:47;6.33;;;1.70;;
23187;SDS011;11762;59.878;17.686;2024-01-06T04:57:16;3.03;;;1.77;;
23187;SDS011;11762;59.878;17.686;2024-01-06T04:59:43;3.27;;;1.57;;
23187;SDS011;11762;59.878;17.686;2024-01-06T05:02:10;3.13;;;1.40;;
23187;SDS011;11762;59.878;17.686;2024-01-06T05:04:37;3.77;;;1.70;;
23187;SDS011;11762;59.878;17.686;2024-01-06T05:07:05;3.43;;;1.50;;
23187;SDS011;11762;59.878;17.686;2024-01-06T05:09:32;3.73;;;2.07;;
23187;SDS011;11762;59.878;17.686;2024-01-06T05:11:59;2.87;;;1.60;;
23187;SDS011;11762;59.878;17.686;2024-01-06T05:14:28;5.00;;;1.83;;
23187;SDS011;11762;59.878;17.686;2024-01-06T05:16:55;4.23;;;1.90;;
23187;SDS011;11762;59.878;17.686;2024-01-06T05:19:22;4.07;;;1.63;;
23187;SDS011;11762;59.878;17.686;2024-01-06T05:21:49;3.87;;;1.60;;
23187;SDS011;11762;59.878;17.686;2024-01-06T05:24:17;3.73;;;2.00;;
23187;SDS011;11762;59.878;17.686;2024-01-06T05:26:45;3.70;;;1.80;;
23187;SDS011;11762;59.878;17.686;2024-01-06T05:29:12;5.43;;;1.60;;
23187;SDS011;11762;59.878;17.686;2024-01-06T05:31:41;3.27;;;1.83;;
23187;SDS011;11762;59.878;17.686;2024-01-06T05:34:08;3.83;;;1.70;;
23187;SDS011;11762;59.878;17.686;2024-01-06T05:36:35;3.47;;;1.97;;
23187;SDS011;11762;59.878;17.686;2024-01-06T05:39:02;3.60;;;1.80;;
23187;SDS011;11762;59.878;17.686;2024-01-06T05:41:30;3.83;;;1.80;;
23187;SDS011;11762;59.878;17.686;2024-01-06T05:44:03;3.63;;;1.93;;
23187;SDS011;11762;59.878;17.686;2024-01-06T05:46:31;4.03;;;1.80;;
23187;SDS011;11762;59.878;17.686;2024-01-06T05:48:59;3.60;;;1.80;;
23187;SDS011;11762;59.878;17.686;2024-01-06T05:51:27;3.57;;;1.73;;
23187;SDS011;11762;59.878;17.686;2024-01-06T05:53:54;5.30;;;2.13;;
23187;SDS011;11762;59.878;17.686;2024-01-06T05:56:22;4.20;;;1.80;;
23187;SDS011;11762;59.878;17.686;2024-01-06T05:58:50;3.03;;;1.43;;
23187;SDS011;11762;59.878;17.686;2024-01-06T06:01:17;6.83;;;1.70;;
23187;SDS011;11762;59.878;17.686;2024-01-06T06:03:45;4.03;;;1.67;;
23187;SDS011;11762;59.878;17.686;2024-01-06T06:06:13;4.90;;;1.93;;
23187;SDS011;11762;59.878;17.686;2024-01-06T06:08:40;4.27;;;1.77;;
23187;SDS011;11762;59.878;17.686;2024-01-06T06:11:08;6.37;;;2.17;;
23187;SDS011;11762;59.878;17.686;2024-01-06T06:13:37;3.80;;;1.53;;
23187;SDS011;11762;59.878;17.686;2024-01-06T06:16:05;2.00;;;0.90;;
23187;SDS011;11762;59.878;17.686;2024-01-06T06:18:32;3.67;;;1.73;;
23187;SDS011;11762;59.878;17.686;2024-01-06T06:21:00;3.87;;;1.87;;
23187;SDS011;11762;59.878;17.686;2024-01-06T06:23:30;2.93;;;1.40;;
23187;SDS011;11762;59.878;17.686;2024-01-06T06:25:57;3.60;;;1.80;;
23187;SDS011;11762;59.878;17.686;2024-01-06T06:28:24;2.37;;;1.20;;
23187;SDS011;11762;59.878;17.686;2024-01-06T06:30:52;3.07;;;1.50;;
23187;SDS011;11762;59.878;17.686;2024-01-06T06:33:19;6.10;;;1.90;;
23187;SDS011;11762;59.878;17.686;2024-01-06T06:35:46;3.63;;;1.50;;
23187;SDS011;11762;59.878;17.686;2024-01-06T06:38:13;6.00;;;1.73;;
23187;SDS011;11762;59.878;17.686;2024-01-06T06:40:42;2.63;;;1.30;;
23187;SDS011;11762;59.878;17.686;2024-01-06T06:43:09;3.17;;;1.53;;
23187;SDS011;11762;59.878;17.686;2024-01-06T06:45:36;4.93;;;1.80;;
23187;SDS011;11762;59.878;17.686;2024-01-06T06:48:04;6.10;;;1.83;;
23187;SDS011;11762;59.878;17.686;2024-01-06T06:50:32;3.63;;;1.80;;
23187;SDS011;11762;59.878;17.686;2024-01-06T06:52:59;4.63;;;2.00;;
23187;SDS011;11762;59.878;17.686;2024-01-06T06:55:27;3.80;;;1.93;;
23187;SDS011;11762;59.878;17.686;2024-01-06T06:57:56;5.67;;;2.40;;
23187;SDS011;11762;59.878;17.686;2024-01-06T07:00:23;9.93;;;3.53;;
23187;SDS011;11762;59.878;17.686;2024-01-06T07:02:50;11.07;;;3.50;;
23187;SDS011;11762;59.878;17.686;2024-01-06T07:05:18;6.43;;;2.20;;
23187;SDS011;11762;59.878;17.686;2024-01-06T07:07:45;4.33;;;1.80;;
23187;SDS011;11762;59.878;17.686;2024-01-06T07:10:12;4.73;;;2.07;;
23187;SDS011;11762;59.878;17.686;2024-01-06T07:12:40;3.27;;;1.73;;
23187;SDS011;11762;59.878;17.686;2024-01-06T07:15:09;4.43;;;2.03;;
23187;SDS011;11762;59.878;17.686;2024-01-06T07:17:37;4.37;;;1.97;;
23187;SDS011;11762;59.878;17.686;2024-01-06T07:20:04;4.50;;;1.87;;
23187;SDS011;11762;59.878;17.686;2024-01-06T07:22:32;5.40;;;3.03;;
23187;SDS011;11762;59.878;17.686;2024-01-06T07:25:00;8.73;;;2.80;;
23187;SDS011;11762;59.878;17.686;2024-01-06T07:27:28;4.67;;;1.80;;
23187;SDS011;11762;59.878;17.686;2024-01-06T07:29:55;7.73;;;2.27;;
23187;SDS011;11762;59.878;17.686;2024-01-06T07:32:23;4.40;;;2.27;;
23187;SDS011;11762;59.878;17.686;2024-01-06T07:34:51;3.90;;;2.00;;
23187;SDS011;11762;59.878;17.686;2024-01-06T07:37:18;4.70;;;1.70;;
23187;SDS011;11762;59.878;17.686;2024-01-06T07:39:45;4.57;;;2.10;;
23187;SDS011;11762;59.878;17.686;2024-01-06T07:42:12;5.00;;;2.43;;
23187;SDS011;11762;59.878;17.686;2024-01-06T07:44:40;2.90;;;1.60;;
23187;SDS011;11762;59.878;17.686;2024-01-06T07:47:07;3.67;;;1.80;;
23187;SDS011;11762;59.878;17.686;2024-01-06T07:49:36;2.93;;;1.73;;
23187;SDS011;11762;59.878;17.686;2024-01-06T07:52:03;4.80;;;2.23;;
23187;SDS011;11762;59.878;17.686;2024-01-06T07:54:30;4.67;;;2.30;;
23187;SDS011;11762;59.878;17.686;2024-01-06T07:56:58;8.77;;;2.03;;
23187;SDS011;11762;59.878;17.686;2024-01-06T07:59:25;3.70;;;2.00;;
23187;SDS011;11762;59.878;17.686;2024-01-06T08:01:52;5.53;;;2.40;;
23187;SDS011;11762;59.878;17.686;2024-01-06T08:04:20;9.53;;;2.47;;
23187;SDS011;11762;59.878;17.686;2024-01-06T08:06:48;4.93;;;2.03;;
23187;SDS011;11762;59.878;17.686;2024-01-06T08:09:15;5.00;;;1.80;;
23187;SDS011;11762;59.878;17.686;2024-01-06T08:11:43;3.30;;;1.73;;
23187;SDS011;11762;59.878;17.686;2024-01-06T08:14:13;2.73;;;1.63;;
23187;SDS011;11762;59.878;17.686;2024-01-06T08:16:42;3.60;;;1.70;;
23187;SDS011;11762;59.878;17.686;2024-01-06T08:19:09;4.53;;;1.87;;
23187;SDS011;11762;59.878;17.686;2024-01-06T08:21:37;4.57;;;2.33;;
23187;SDS011;11762;59.878;17.686;2024-01-06T08:24:05;4.97;;;1.87;;
23187;SDS011;11762;59.878;17.686;2024-01-06T08:26:33;4.40;;;2.10;;
23187;SDS011;11762;59.878;17.686;2024-01-06T08:29:00;4.10;;;2.13;;
23187;SDS011;11762;59.878;17.686;2024-01-06T08:31:27;3.17;;;1.60;;
23187;SDS011;11762;59.878;17.686;2024-01-06T08:33:54;3.70;;;1.93;;
23187;SDS011;11762;59.878;17.686;2024-01-06T08:36:22;5.00;;;1.83;;
23187;SDS011;11762;59.878;17.686;2024-01-06T08:38:49;4.93;;;1.80;;
23187;SDS011;11762;59.878;17.686;2024-01-06T08:41:18;3.07;;;1.70;;
23187;SDS011;11762;59.878;17.686;2024-01-06T08:43:45;4.23;;;1.93;;
23187;SDS011;11762;59.878;17.686;2024-01-06T08:46:12;3.77;;;1.80;;
23187;SDS011;11762;59.878;17.686;2024-01-06T08:48:39;4.27;;;1.97;;
23187;SDS011;11762;59.878;17.686;2024-01-06T08:51:07;6.37;;;2.30;;
23187;SDS011;11762;59.878;17.686;2024-01-06T08:53:34;4.50;;;2.03;;
23187;SDS011;11762;59.878;17.686;2024-01-06T08:56:01;5.63;;;2.20;;
23187;SDS011;11762;59.878;17.686;2024-01-06T08:58:30;3.53;;;2.00;;
23187;SDS011;11762;59.878;17.686;2024-01-06T09:00:57;4.63;;;2.53;;
23187;SDS011;11762;59.878;17.686;2024-01-06T09:03:25;5.97;;;2.40;;
23187;SDS011;11762;59.878;17.686;2024-01-06T09:05:53;5.67;;;2.37;;
23187;SDS011;11762;59.878;17.686;2024-01-06T09:08:20;6.93;;;2.60;;
23187;SDS011;11762;59.878;17.686;2024-01-06T09:10:49;5.10;;;2.40;;
23187;SDS011;11762;59.878;17.686;2024-01-06T09:13:20;3.87;;;2.00;;
23187;SDS011;11762;59.878;17.686;2024-01-06T09:15:49;5.20;;;2.73;;
23187;SDS011;11762;59.878;17.686;2024-01-06T09:18:17;5.27;;;2.63;;
23187;SDS011;11762;59.878;17.686;2024-01-06T09:20:44;5.47;;;2.53;;
23187;SDS011;11762;59.878;17.686;2024-01-06T09:23:12;5.90;;;2.57;;
23187;SDS011;11762;59.878;17.686;2024-01-06T09:25:40;4.73;;;2.53;;
23187;SDS011;11762;59.878;17.686;2024-01-06T09:28:07;4.53;;;2.20;;
23187;SDS011;11762;59.878;17.686;2024-01-06T09:30:35;4.80;;;2.17;;
23187;SDS011;11762;59.878;17.686;2024-01-06T09:33:05;5.50;;;2.10;;
23187;SDS011;11762;59.878;17.686;2024-01-06T09:35:33;6.60;;;2.53;;
23187;SDS011;11762;59.878;17.686;2024-01-06T09:38:00;4.90;;;2.10;;
23187;SDS011;11762;59.878;17.686;2024-01-06T09:40:27;4.27;;;1.90;;
23187;SDS011;11762;59.878;17.686;2024-01-06T09:42:57;5.27;;;2.40;;
23187;SDS011;11762;59.878;17.686;2024-01-06T09:45:25;3.90;;;2.10;;
23187;SDS011;11762;59.878;17.686;2024-01-06T09:47:52;8.87;;;3.07;;
23187;SDS011;11762;59.878;17.686;2024-01-06T09:50:22;8.37;;;3.10;;
23187;SDS011;11762;59.878;17.686;2024-01-06T09:52:49;6.77;;;2.60;;
23187;SDS011;11762;59.878;17.686;2024-01-06T09:55:21;4.67;;;2.37;;
23187;SDS011;11762;59.878;17.686;2024-01-06T09:57:50;4.10;;;2.10;;
23187;SDS011;11762;59.878;17.686;2024-01-06T10:00:18;4.50;;;2.47;;
23187;SDS011;11762;59.878;17.686;2024-01-06T10:02:46;7.33;;;2.90;;
23187;SDS011;11762;59.878;17.686;2024-01-06T10:05:12;6.47;;;2.73;;
23187;SDS011;11762;59.878;17.686;2024-01-06T10:07:42;8.27;;;2.30;;
23187;SDS011;11762;59.878;17.686;2024-01-06T10:10:10;5.73;;;2.60;;
23187;SDS011;11762;59.878;17.686;2024-01-06T10:12:37;6.63;;;3.00;;
23187;SDS011;11762;59.878;17.686;2024-01-06T10:15:05;6.07;;;2.30;;
23187;SDS011;11762;59.878;17.686;2024-01-06T10:17:32;6.77;;;3.03;;
23187;SDS011;11762;59.878;17.686;2024-01-06T10:20:00;6.77;;;2.80;;
23187;SDS011;11762;59.878;17.686;2024-01-06T10:22:28;6.70;;;2.77;;
23187;SDS011;11762;59.878;17.686;2024-01-06T10:24:56;7.17;;;3.10;;
23187;SDS011;11762;59.878;17.686;2024-01-06T10:27:24;7.07;;;2.80;;
23187;SDS011;11762;59.878;17.686;2024-01-06T10:29:51;6.47;;;2.90;;
23187;SDS011;11762;59.878;17.686;2024-01-06T10:32:18;6.03;;;2.73;;
23187;SDS011;11762;59.878;17.686;2024-01-06T10:34:45;5.00;;;2.67;;
23187;SDS011;11762;59.878;17.686;2024-01-06T10:37:13;8.70;;;2.80;;
23187;SDS011;11762;59.878;17.686;2024-01-06T10:39:40;7.83;;;2.97;;
23187;SDS011;11762;59.878;17.686;2024-01-06T10:42:09;5.43;;;2.60;;
23187;SDS011;11762;59.878;17.686;2024-01-06T10:44:37;9.23;;;3.63;;
23187;SDS011;11762;59.878;17.686;2024-01-06T10:47:06;10.10;;;3.13;;
23187;SDS011;11762;59.878;17.686;2024-01-06T10:49:33;7.27;;;3.47;;
23187;SDS011;11762;59.878;17.686;2024-01-06T10:52:02;10.23;;;3.67;;
23187;SDS011;11762;59.878;17.686;2024-01-06T10:54:31;8.27;;;3.07;;
23187;SDS011;11762;59.878;17.686;2024-01-06T10:57:01;9.57;;;4.30;;
23187;SDS011;11762;59.878;17.686;2024-01-06T10:59:30;10.57;;;3.47;;
23187;SDS011;11762;59.878;17.686;2024-01-06T11:02:00;7.63;;;3.53;;
23187;SDS011;11762;59.878;17.686;2024-01-06T11:04:28;6.93;;;3.30;;
23187;SDS011;11762;59.878;17.686;2024-01-06T11:06:55;10.20;;;4.00;;
23187;SDS011;11762;59.878;17.686;2024-01-06T11:09:24;9.33;;;3.80;;
23187;SDS011;11762;59.878;17.686;2024-01-06T11:11:56;11.93;;;3.97;;
23187;SDS011;11762;59.878;17.686;2024-01-06T11:14:24;6.27;;;3.33;;
23187;SDS011;11762;59.878;17.686;2024-01-06T11:16:54;9.10;;;4.00;;
23187;SDS011;11762;59.878;17.686;2024-01-06T11:22:17;7.83;;;3.70;;
23187;SDS011;11762;59.878;17.686;2024-01-06T11:24:46;5.97;;;3.10;;
23187;SDS011;11762;59.878;17.686;2024-01-06T11:27:17;12.03;;;3.53;;
23187;SDS011;11762;59.878;17.686;2024-01-06T11:29:44;8.97;;;3.30;;
23187;SDS011;11762;59.878;17.686;2024-01-06T11:32:19;10.07;;;3.77;;
23187;SDS011;11762;59.878;17.686;2024-01-06T11:34:47;7.17;;;3.87;;
23187;SDS011;11762;59.878;17.686;2024-01-06T11:37:17;8.10;;;3.43;;
23187;SDS011;11762;59.878;17.686;2024-01-06T11:39:44;8.87;;;3.50;;
23187;SDS011;11762;59.878;17.686;2024-01-06T11:42:11;6.37;;;3.07;;
23187;SDS011;11762;59.878;17.686;2024-01-06T11:44:38;6.10;;;3.13;;
23187;SDS011;11762;59.878;17.686;2024-01-06T11:47:06;5.37;;;2.80;;
23187;SDS011;11762;59.878;17.686;2024-01-06T11:49:35;8.00;;;3.10;;
23187;SDS011;11762;59.878;17.686;2024-01-06T11:52:02;6.17;;;3.23;;
23187;SDS011;11762;59.878;17.686;2024-01-06T11:54:29;9.03;;;4.10;;
23187;SDS011;11762;59.878;17.686;2024-01-06T11:56:57;8.60;;;3.50;;
23187;SDS011;11762;59.878;17.686;2024-01-06T11:59:24;9.20;;;3.37;;
23187;SDS011;11762;59.878;17.686;2024-01-06T12:01:52;10.47;;;3.60;;
23187;SDS011;11762;59.878;17.686;2024-01-06T12:04:19;7.23;;;3.37;;
23187;SDS011;11762;59.878;17.686;2024-01-06T12:06:48;9.70;;;3.43;;
23187;SDS011;11762;59.878;17.686;2024-01-06T12:09:16;11.77;;;3.63;;
23187;SDS011;11762;59.878;17.686;2024-01-06T12:11:45;13.00;;;5.00;;
23187;SDS011;11762;59.878;17.686;2024-01-06T12:14:13;6.40;;;2.83;;
23187;SDS011;11762;59.878;17.686;2024-01-06T12:16:40;7.80;;;3.20;;
23187;SDS011;11762;59.878;17.686;2024-01-06T12:19:08;12.23;;;5.17;;
23187;SDS011;11762;59.878;17.686;2024-01-06T12:21:35;9.30;;;4.27;;
23187;SDS011;11762;59.878;17.686;2024-01-06T12:24:19;9.10;;;3.60;;
23187;SDS011;11762;59.878;17.686;2024-01-06T12:26:47;13.30;;;3.90;;
23187;SDS011;11762;59.878;17.686;2024-01-06T12:29:14;13.53;;;4.53;;
23187;SDS011;11762;59.878;17.686;2024-01-06T12:31:41;11.27;;;3.63;;
23187;SDS011;11762;59.878;17.686;2024-01-06T12:34:10;6.13;;;3.33;;
23187;SDS011;11762;59.878;17.686;2024-01-06T12:36:37;7.60;;;3.67;;
23187;SDS011;11762;59.878;17.686;2024-01-06T12:39:06;6.57;;;3.37;;
23187;SDS011;11762;59.878;17.686;2024-01-06T12:41:36;8.17;;;3.43;;
23187;SDS011;11762;59.878;17.686;2024-01-06T12:44:03;7.93;;;3.27;;
23187;SDS011;11762;59.878;17.686;2024-01-06T12:46:31;10.00;;;3.73;;
23187;SDS011;11762;59.878;17.686;2024-01-06T12:48:58;10.17;;;3.87;;
23187;SDS011;11762;59.878;17.686;2024-01-06T12:51:25;6.10;;;2.87;;
23187;SDS011;11762;59.878;17.686;2024-01-06T12:53:53;7.23;;;2.77;;
23187;SDS011;11762;59.878;17.686;2024-01-06T12:56:20;6.03;;;2.97;;
23187;SDS011;11762;59.878;17.686;2024-01-06T12:58:48;9.83;;;3.20;;
23187;SDS011;11762;59.878;17.686;2024-01-06T13:01:16;9.97;;;3.63;;
23187;SDS011;11762;59.878;17.686;2024-01-06T13:03:43;12.30;;;3.70;;
23187;SDS011;11762;59.878;17.686;2024-01-06T13:06:11;7.93;;;3.60;;
23187;SDS011;11762;59.878;17.686;2024-01-06T13:08:39;7.60;;;3.23;;
23187;SDS011;11762;59.878;17.686;2024-01-06T13:11:07;8.27;;;3.43;;
23187;SDS011;11762;59.878;17.686;2024-01-06T13:13:34;7.57;;;3.73;;
23187;SDS011;11762;59.878;17.686;2024-01-06T13:16:03;7.30;;;3.17;;
23187;SDS011;11762;59.878;17.686;2024-01-06T13:18:31;7.43;;;3.10;;
23187;SDS011;11762;59.878;17.686;2024-01-06T13:20:58;10.53;;;3.57;;
23187;SDS011;11762;59.878;17.686;2024-01-06T13:23:25;7.50;;;3.07;;
23187;SDS011;11762;59.878;17.686;2024-01-06T13:25:53;8.07;;;3.07;;
23187;SDS011;11762;59.878;17.686;2024-01-06T13:28:20;7.63;;;3.33;;
23187;SDS011;11762;59.878;17.686;2024-01-06T13:30:49;6.60;;;3.13;;
23187;SDS011;11762;59.878;17.686;2024-01-06T13:33:18;6.30;;;2.97;;
23187;SDS011;11762;59.878;17.686;2024-01-06T13:35:46;8.50;;;2.97;;
23187;SDS011;11762;59.878;17.686;2024-01-06T13:38:13;6.93;;;2.90;;
23187;SDS011;11762;59.878;17.686;2024-01-06T13:40:41;7.13;;;3.23;;
23187;SDS011;11762;59.878;17.686;2024-01-06T13:43:08;6.50;;;2.80;;
23187;SDS011;11762;59.878;17.686;2024-01-06T13:45:40;5.20;;;2.40;;
23187;SDS011;11762;59.878;17.686;2024-01-06T13:48:07;5.30;;;2.00;;
23187;SDS011;11762;59.878;17.686;2024-01-06T13:50:36;7.17;;;3.07;;
23187;SDS011;11762;59.878;17.686;2024-01-06T13:53:03;5.83;;;3.30;;
23187;SDS011;11762;59.878;17.686;2024-01-06T13:55:31;5.53;;;2.53;;
23187;SDS011;11762;59.878;17.686;2024-01-06T13:57:59;7.37;;;2.27;;
23187;SDS011;11762;59.878;17.686;2024-01-06T14:00:26;4.93;;;2.67;;
23187;SDS011;11762;59.878;17.686;2024-01-06T14:02:54;7.80;;;2.23;;
23187;SDS011;11762;59.878;17.686;2024-01-06T14:05:21;6.00;;;2.23;;
23187;SDS011;11762;59.878;17.686;2024-01-06T14:07:50;7.07;;;2.83;;
23187;SDS011;11762;59.878;17.686;2024-01-06T14:10:17;4.63;;;2.30;;
23187;SDS011;11762;59.878;17.686;2024-01-06T14:12:44;4.57;;;1.77;;
23187;SDS011;11762;59.878;17.686;2024-01-06T14:15:12;6.07;;;2.40;;
23187;SDS011;11762;59.878;17.686;2024-01-06T14:17:39;9.27;;;2.07;;
23187;SDS011;11762;59.878;17.686;2024-01-06T14:20:07;4.10;;;2.23;;
23187;SDS011;11762;59.878;17.686;2024-01-06T14:22:37;12.27;;;2.67;;
23187;SDS011;11762;59.878;17.686;2024-01-06T14:25:07;5.80;;;2.50;;
23187;SDS011;11762;59.878;17.686;2024-01-06T14:27:34;4.30;;;1.90;;
23187;SDS011;11762;59.878;17.686;2024-01-06T14:30:01;7.73;;;3.57;;
23187;SDS011;11762;59.878;17.686;2024-01-06T14:32:29;12.50;;;3.70;;
23187;SDS011;11762;59.878;17.686;2024-01-06T14:34:58;4.73;;;2.37;;
23187;SDS011;11762;59.878;17.686;2024-01-06T14:37:26;5.47;;;2.67;;
23187;SDS011;11762;59.878;17.686;2024-01-06T14:39:54;4.90;;;2.17;;